sensor_id;sensor_type;location;lat;lon;timestamp;P1;durP1;ratioP1;P2;durP2;ratioP2
7531;SDS011;3807;49.030;8.714;2023-06-01T00:01:50;6.18;;;2.37;;
7531;SDS011;3807;49.030;8.714;2023-06-01T00:04:16;3.72;;;2.50;;
7531;SDS011;3807;49.030;8.714;2023-06-01T00:06:42;5.12;;;2.25;;
7531;SDS011;3807;49.030;8.714;2023-06-01T00:09:07;5.65;;;2.33;;
7531;SDS011;3807;49.030;8.714;2023-06-01T00:11:33;4.43;;;2.20;;
7531;SDS011;3807;49.030;8.714;2023-06-01T00:13:58;2.87;;;2.00;;
7531;SDS011;3807;49.030;8.714;2023-06-01T00:16:24;3.60;;;2.30;;
7531;SDS011;3807;49.030;8.714;2023-06-01T00:18:50;5.37;;;1.87;;
7531;SDS011;3807;49.030;8.714;2023-06-01T00:21:17;4.15;;;1.87;;
7531;SDS011;3807;49.030;8.714;2023-06-01T00:23:43;8.68;;;2.50;;
7531;SDS011;3807;49.030;8.714;2023-06-01T00:26:08;3.80;;;2.12;;
7531;SDS011;3807;49.030;8.714;2023-06-01T00:28:34;4.57;;;2.30;;
7531;SDS011;3807;49.030;8.714;2023-06-01T00:31:00;4.37;;;2.40;;
7531;SDS011;3807;49.030;8.714;2023-06-01T00:33:25;4.30;;;2.17;;
7531;SDS011;3807;49.030;8.714;2023-06-01T00:35:51;3.47;;;2.28;;
7531;SDS011;3807;49.030;8.714;2023-06-01T00:38:17;4.82;;;2.37;;
7531;SDS011;3807;49.030;8.714;2023-06-01T00:40:42;3.37;;;2.28;;
7531;SDS011;3807;49.030;8.714;2023-06-01T00:43:10;6.93;;;2.53;;
7531;SDS011;3807;49.030;8.714;2023-06-01T00:45:36;6.50;;;2.00;;
7531;SDS011;3807;49.030;8.714;2023-06-01T00:48:02;4.53;;;2.33;;
7531;SDS011;3807;49.030;8.714;2023-06-01T00:50:29;4.25;;;2.08;;
7531;SDS011;3807;49.030;8.714;2023-06-01T00:52:55;2.67;;;1.77;;
7531;SDS011;3807;49.030;8.714;2023-06-01T00:55:20;3.17;;;2.28;;
7531;SDS011;3807;49.030;8.714;2023-06-01T00:57:46;4.13;;;2.27;;
7531;SDS011;3807;49.030;8.714;2023-06-01T01:00:14;3.47;;;2.17;;
7531;SDS011;3807;49.030;8.714;2023-06-01T01:02:40;3.55;;;2.25;;
7531;SDS011;3807;49.030;8.714;2023-06-01T01:05:07;5.67;;;2.47;;
7531;SDS011;3807;49.030;8.714;2023-06-01T01:15:40;7.30;;;2.40;;
7531;SDS011;3807;49.030;8.714;2023-06-01T01:18:53;4.50;;;2.57;;
7531;SDS011;3807;49.030;8.714;2023-06-01T01:21:29;6.03;;;2.40;;
7531;SDS011;3807;49.030;8.714;2023-06-01T01:30:03;3.97;;;2.47;;
7531;SDS011;3807;49.030;8.714;2023-06-01T01:32:32;5.60;;;2.30;;
7531;SDS011;3807;49.030;8.714;2023-06-01T01:35:00;4.63;;;2.10;;
7531;SDS011;3807;49.030;8.714;2023-06-01T01:37:26;6.43;;;2.50;;
7531;SDS011;3807;49.030;8.714;2023-06-01T01:39:52;4.27;;;2.53;;
7531;SDS011;3807;49.030;8.714;2023-06-01T01:42:17;3.93;;;2.17;;
7531;SDS011;3807;49.030;8.714;2023-06-01T01:44:43;5.33;;;2.27;;
7531;SDS011;3807;49.030;8.714;2023-06-01T01:47:19;4.00;;;2.33;;
7531;SDS011;3807;49.030;8.714;2023-06-01T01:49:53;4.60;;;2.23;;
7531;SDS011;3807;49.030;8.714;2023-06-01T01:52:42;4.57;;;2.37;;
7531;SDS011;3807;49.030;8.714;2023-06-01T01:55:09;5.57;;;2.60;;
7531;SDS011;3807;49.030;8.714;2023-06-01T01:57:35;4.80;;;2.20;;
7531;SDS011;3807;49.030;8.714;2023-06-01T02:00:02;2.90;;;2.07;;
7531;SDS011;3807;49.030;8.714;2023-06-01T02:02:31;5.00;;;2.53;;
7531;SDS011;3807;49.030;8.714;2023-06-01T02:05:16;3.30;;;2.33;;
7531;SDS011;3807;49.030;8.714;2023-06-01T02:07:41;3.80;;;2.40;;
7531;SDS011;3807;49.030;8.714;2023-06-01T02:10:07;4.83;;;2.40;;
7531;SDS011;3807;49.030;8.714;2023-06-01T02:12:32;4.87;;;2.47;;
7531;SDS011;3807;49.030;8.714;2023-06-01T02:14:58;3.50;;;2.30;;
7531;SDS011;3807;49.030;8.714;2023-06-01T02:17:23;3.47;;;2.33;;
7531;SDS011;3807;49.030;8.714;2023-06-01T02:19:50;5.13;;;2.47;;
7531;SDS011;3807;49.030;8.714;2023-06-01T02:22:15;3.93;;;2.20;;
7531;SDS011;3807;49.030;8.714;2023-06-01T02:24:40;4.40;;;2.50;;
7531;SDS011;3807;49.030;8.714;2023-06-01T02:27:06;3.97;;;2.40;;
7531;SDS011;3807;49.030;8.714;2023-06-01T02:29:31;3.03;;;2.27;;
7531;SDS011;3807;49.030;8.714;2023-06-01T02:31:57;5.03;;;2.60;;
7531;SDS011;3807;49.030;8.714;2023-06-01T02:34:22;4.40;;;2.50;;
7531;SDS011;3807;49.030;8.714;2023-06-01T02:36:48;5.50;;;2.70;;
7531;SDS011;3807;49.030;8.714;2023-06-01T02:39:13;2.57;;;2.30;;
7531;SDS011;3807;49.030;8.714;2023-06-01T02:41:39;7.93;;;2.60;;
7531;SDS011;3807;49.030;8.714;2023-06-01T02:44:04;4.37;;;3.03;;
7531;SDS011;3807;49.030;8.714;2023-06-01T02:46:30;4.93;;;2.50;;
7531;SDS011;3807;49.030;8.714;2023-06-01T02:48:55;3.37;;;2.17;;
7531;SDS011;3807;49.030;8.714;2023-06-01T02:51:20;3.63;;;2.00;;
7531;SDS011;3807;49.030;8.714;2023-06-01T02:53:46;3.57;;;2.27;;
7531;SDS011;3807;49.030;8.714;2023-06-01T02:56:11;4.87;;;2.33;;
7531;SDS011;3807;49.030;8.714;2023-06-01T02:58:37;4.57;;;2.67;;
7531;SDS011;3807;49.030;8.714;2023-06-01T03:01:03;6.17;;;2.50;;
7531;SDS011;3807;49.030;8.714;2023-06-01T03:03:28;5.10;;;2.93;;
7531;SDS011;3807;49.030;8.714;2023-06-01T03:05:54;4.13;;;2.83;;
7531;SDS011;3807;49.030;8.714;2023-06-01T03:08:20;6.23;;;2.63;;
7531;SDS011;3807;49.030;8.714;2023-06-01T03:10:46;3.27;;;2.53;;
7531;SDS011;3807;49.030;8.714;2023-06-01T03:13:12;4.80;;;2.70;;
7531;SDS011;3807;49.030;8.714;2023-06-01T03:15:37;2.87;;;2.37;;
7531;SDS011;3807;49.030;8.714;2023-06-01T03:18:03;4.13;;;2.40;;
7531;SDS011;3807;49.030;8.714;2023-06-01T03:20:30;6.97;;;2.60;;
7531;SDS011;3807;49.030;8.714;2023-06-01T03:22:56;5.27;;;2.43;;
7531;SDS011;3807;49.030;8.714;2023-06-01T03:25:21;4.20;;;2.40;;
7531;SDS011;3807;49.030;8.714;2023-06-01T03:27:47;3.73;;;2.53;;
7531;SDS011;3807;49.030;8.714;2023-06-01T03:30:13;3.63;;;2.10;;
7531;SDS011;3807;49.030;8.714;2023-06-01T03:32:41;4.97;;;2.70;;
7531;SDS011;3807;49.030;8.714;2023-06-01T03:35:08;3.43;;;2.30;;
7531;SDS011;3807;49.030;8.714;2023-06-01T03:37:35;4.27;;;2.77;;
7531;SDS011;3807;49.030;8.714;2023-06-01T03:40:01;9.97;;;2.87;;
7531;SDS011;3807;49.030;8.714;2023-06-01T03:42:35;5.20;;;2.60;;
7531;SDS011;3807;49.030;8.714;2023-06-01T03:45:04;5.00;;;2.77;;
7531;SDS011;3807;49.030;8.714;2023-06-01T03:47:30;4.53;;;2.77;;
7531;SDS011;3807;49.030;8.714;2023-06-01T03:49:56;3.43;;;2.47;;
7531;SDS011;3807;49.030;8.714;2023-06-01T03:52:23;3.20;;;2.60;;
7531;SDS011;3807;49.030;8.714;2023-06-01T03:54:49;5.03;;;2.33;;
7531;SDS011;3807;49.030;8.714;2023-06-01T03:57:15;5.30;;;2.53;;
7531;SDS011;3807;49.030;8.714;2023-06-01T03:59:40;3.83;;;2.60;;
7531;SDS011;3807;49.030;8.714;2023-06-01T04:02:06;6.77;;;2.30;;
7531;SDS011;3807;49.030;8.714;2023-06-01T04:04:34;5.23;;;2.40;;
7531;SDS011;3807;49.030;8.714;2023-06-01T04:07:00;9.83;;;2.43;;
7531;SDS011;3807;49.030;8.714;2023-06-01T04:09:27;8.33;;;2.83;;
7531;SDS011;3807;49.030;8.714;2023-06-01T04:11:53;7.60;;;2.20;;
7531;SDS011;3807;49.030;8.714;2023-06-01T04:14:19;3.00;;;1.97;;
7531;SDS011;3807;49.030;8.714;2023-06-01T04:16:45;4.30;;;2.17;;
7531;SDS011;3807;49.030;8.714;2023-06-01T04:19:10;3.13;;;2.30;;
7531;SDS011;3807;49.030;8.714;2023-06-01T04:21:35;5.80;;;2.63;;
7531;SDS011;3807;49.030;8.714;2023-06-01T04:24:01;4.97;;;2.83;;
7531;SDS011;3807;49.030;8.714;2023-06-01T04:26:27;4.57;;;2.63;;
7531;SDS011;3807;49.030;8.714;2023-06-01T04:28:53;5.87;;;2.70;;
7531;SDS011;3807;49.030;8.714;2023-06-01T04:31:21;4.60;;;2.87;;
7531;SDS011;3807;49.030;8.714;2023-06-01T04:33:47;7.93;;;3.00;;
7531;SDS011;3807;49.030;8.714;2023-06-01T04:36:21;4.20;;;2.80;;
7531;SDS011;3807;49.030;8.714;2023-06-01T04:38:49;6.00;;;2.80;;
7531;SDS011;3807;49.030;8.714;2023-06-01T04:41:19;3.77;;;2.70;;
7531;SDS011;3807;49.030;8.714;2023-06-01T04:43:48;3.53;;;2.47;;
7531;SDS011;3807;49.030;8.714;2023-06-01T04:46:18;4.73;;;2.50;;
7531;SDS011;3807;49.030;8.714;2023-06-01T04:48:45;6.33;;;2.43;;
7531;SDS011;3807;49.030;8.714;2023-06-01T04:51:11;7.93;;;2.93;;
7531;SDS011;3807;49.030;8.714;2023-06-01T04:53:44;5.93;;;3.20;;
7531;SDS011;3807;49.030;8.714;2023-06-01T04:56:14;3.87;;;2.67;;
7531;SDS011;3807;49.030;8.714;2023-06-01T04:58:39;4.73;;;2.80;;
7531;SDS011;3807;49.030;8.714;2023-06-01T05:01:05;4.73;;;3.37;;
7531;SDS011;3807;49.030;8.714;2023-06-01T05:03:31;4.33;;;2.60;;
7531;SDS011;3807;49.030;8.714;2023-06-01T05:05:56;7.00;;;3.63;;
7531;SDS011;3807;49.030;8.714;2023-06-01T05:08:23;3.70;;;2.63;;
7531;SDS011;3807;49.030;8.714;2023-06-01T05:10:48;5.43;;;2.53;;
7531;SDS011;3807;49.030;8.714;2023-06-01T05:13:13;4.03;;;2.43;;
7531;SDS011;3807;49.030;8.714;2023-06-01T05:15:39;7.47;;;2.57;;
7531;SDS011;3807;49.030;8.714;2023-06-01T05:18:04;7.77;;;3.60;;
7531;SDS011;3807;49.030;8.714;2023-06-01T05:20:30;4.33;;;2.43;;
7531;SDS011;3807;49.030;8.714;2023-06-01T05:22:55;4.57;;;2.50;;
7531;SDS011;3807;49.030;8.714;2023-06-01T05:25:20;5.90;;;2.73;;
7531;SDS011;3807;49.030;8.714;2023-06-01T05:27:46;6.80;;;3.17;;
7531;SDS011;3807;49.030;8.714;2023-06-01T05:30:11;5.23;;;2.80;;
7531;SDS011;3807;49.030;8.714;2023-06-01T05:32:37;4.20;;;2.30;;
7531;SDS011;3807;49.030;8.714;2023-06-01T05:35:02;4.13;;;2.53;;
7531;SDS011;3807;49.030;8.714;2023-06-01T05:37:29;2.90;;;2.37;;
7531;SDS011;3807;49.030;8.714;2023-06-01T05:39:54;6.13;;;2.97;;
7531;SDS011;3807;49.030;8.714;2023-06-01T05:42:20;6.10;;;2.60;;
7531;SDS011;3807;49.030;8.714;2023-06-01T05:44:45;7.47;;;2.70;;
7531;SDS011;3807;49.030;8.714;2023-06-01T05:47:10;5.53;;;2.87;;
7531;SDS011;3807;49.030;8.714;2023-06-01T05:49:36;4.70;;;3.07;;
7531;SDS011;3807;49.030;8.714;2023-06-01T05:52:01;6.17;;;2.63;;
7531;SDS011;3807;49.030;8.714;2023-06-01T05:54:27;7.40;;;2.70;;
7531;SDS011;3807;49.030;8.714;2023-06-01T05:56:52;6.47;;;2.93;;
7531;SDS011;3807;49.030;8.714;2023-06-01T05:59:17;7.93;;;2.87;;
7531;SDS011;3807;49.030;8.714;2023-06-01T06:01:43;8.20;;;2.83;;
7531;SDS011;3807;49.030;8.714;2023-06-01T06:04:09;6.27;;;3.07;;
7531;SDS011;3807;49.030;8.714;2023-06-01T06:06:35;6.07;;;2.77;;
7531;SDS011;3807;49.030;8.714;2023-06-01T06:09:01;6.23;;;2.87;;
7531;SDS011;3807;49.030;8.714;2023-06-01T06:11:27;6.30;;;2.87;;
7531;SDS011;3807;49.030;8.714;2023-06-01T06:13:52;5.10;;;2.67;;
7531;SDS011;3807;49.030;8.714;2023-06-01T06:16:18;7.70;;;2.50;;
7531;SDS011;3807;49.030;8.714;2023-06-01T06:18:43;3.97;;;2.43;;
7531;SDS011;3807;49.030;8.714;2023-06-01T06:21:08;3.80;;;2.87;;
7531;SDS011;3807;49.030;8.714;2023-06-01T06:23:34;4.47;;;2.17;;
7531;SDS011;3807;49.030;8.714;2023-06-01T06:25:59;3.90;;;2.57;;
7531;SDS011;3807;49.030;8.714;2023-06-01T06:28:25;3.10;;;2.63;;
7531;SDS011;3807;49.030;8.714;2023-06-01T06:30:51;4.60;;;2.40;;
7531;SDS011;3807;49.030;8.714;2023-06-01T06:33:17;5.47;;;2.60;;
7531;SDS011;3807;49.030;8.714;2023-06-01T06:35:42;7.13;;;2.60;;
7531;SDS011;3807;49.030;8.714;2023-06-01T06:38:08;6.00;;;2.17;;
7531;SDS011;3807;49.030;8.714;2023-06-01T06:40:33;4.40;;;2.43;;
7531;SDS011;3807;49.030;8.714;2023-06-01T06:42:58;6.23;;;2.10;;
7531;SDS011;3807;49.030;8.714;2023-06-01T06:45:23;3.10;;;2.17;;
7531;SDS011;3807;49.030;8.714;2023-06-01T06:47:49;4.57;;;2.30;;
7531;SDS011;3807;49.030;8.714;2023-06-01T06:50:14;7.10;;;2.53;;
7531;SDS011;3807;49.030;8.714;2023-06-01T06:52:40;5.67;;;2.43;;
7531;SDS011;3807;49.030;8.714;2023-06-01T06:55:06;6.83;;;2.37;;
7531;SDS011;3807;49.030;8.714;2023-06-01T06:57:32;4.40;;;2.20;;
7531;SDS011;3807;49.030;8.714;2023-06-01T06:59:59;7.27;;;2.30;;
7531;SDS011;3807;49.030;8.714;2023-06-01T07:02:25;6.57;;;2.57;;
7531;SDS011;3807;49.030;8.714;2023-06-01T07:04:50;3.40;;;2.23;;
7531;SDS011;3807;49.030;8.714;2023-06-01T07:07:16;5.53;;;2.53;;
7531;SDS011;3807;49.030;8.714;2023-06-01T07:09:42;8.07;;;2.70;;
7531;SDS011;3807;49.030;8.714;2023-06-01T07:12:07;4.40;;;2.20;;
7531;SDS011;3807;49.030;8.714;2023-06-01T07:14:33;8.50;;;2.57;;
7531;SDS011;3807;49.030;8.714;2023-06-01T07:16:58;5.40;;;2.47;;
7531;SDS011;3807;49.030;8.714;2023-06-01T07:19:24;3.47;;;2.30;;
7531;SDS011;3807;49.030;8.714;2023-06-01T07:21:50;7.80;;;2.77;;
7531;SDS011;3807;49.030;8.714;2023-06-01T07:24:17;7.77;;;2.77;;
7531;SDS011;3807;49.030;8.714;2023-06-01T07:26:44;5.93;;;2.50;;
7531;SDS011;3807;49.030;8.714;2023-06-01T07:29:09;8.23;;;2.50;;
7531;SDS011;3807;49.030;8.714;2023-06-01T07:31:34;6.50;;;2.80;;
7531;SDS011;3807;49.030;8.714;2023-06-01T07:34:00;4.50;;;2.43;;
7531;SDS011;3807;49.030;8.714;2023-06-01T07:36:25;5.07;;;2.60;;
7531;SDS011;3807;49.030;8.714;2023-06-01T07:38:51;3.97;;;2.20;;
7531;SDS011;3807;49.030;8.714;2023-06-01T07:41:16;6.90;;;2.53;;
7531;SDS011;3807;49.030;8.714;2023-06-01T07:43:42;5.03;;;2.50;;
7531;SDS011;3807;49.030;8.714;2023-06-01T07:46:07;8.73;;;2.83;;
7531;SDS011;3807;49.030;8.714;2023-06-01T07:48:33;5.17;;;2.50;;
7531;SDS011;3807;49.030;8.714;2023-06-01T07:51:02;5.67;;;2.50;;
7531;SDS011;3807;49.030;8.714;2023-06-01T07:53:28;5.93;;;2.57;;
7531;SDS011;3807;49.030;8.714;2023-06-01T07:55:53;5.27;;;2.63;;
7531;SDS011;3807;49.030;8.714;2023-06-01T07:58:18;6.43;;;2.90;;
7531;SDS011;3807;49.030;8.714;2023-06-01T08:00:44;7.10;;;2.60;;
7531;SDS011;3807;49.030;8.714;2023-06-01T08:03:09;3.87;;;2.30;;
7531;SDS011;3807;49.030;8.714;2023-06-01T08:05:36;6.27;;;2.73;;
7531;SDS011;3807;49.030;8.714;2023-06-01T08:08:01;5.37;;;2.50;;
7531;SDS011;3807;49.030;8.714;2023-06-01T08:10:27;5.23;;;2.83;;
7531;SDS011;3807;49.030;8.714;2023-06-01T08:12:53;6.53;;;2.73;;
7531;SDS011;3807;49.030;8.714;2023-06-01T08:15:21;7.20;;;2.60;;
7531;SDS011;3807;49.030;8.714;2023-06-01T08:17:48;8.27;;;2.60;;
7531;SDS011;3807;49.030;8.714;2023-06-01T08:20:15;7.63;;;3.40;;
7531;SDS011;3807;49.030;8.714;2023-06-01T08:22:46;6.80;;;3.10;;
7531;SDS011;3807;49.030;8.714;2023-06-01T08:25:11;6.10;;;3.37;;
7531;SDS011;3807;49.030;8.714;2023-06-01T08:27:37;5.53;;;3.20;;
7531;SDS011;3807;49.030;8.714;2023-06-01T08:30:03;5.07;;;3.13;;
7531;SDS011;3807;49.030;8.714;2023-06-01T08:32:29;8.77;;;3.07;;
7531;SDS011;3807;49.030;8.714;2023-06-01T08:34:54;6.30;;;2.83;;
7531;SDS011;3807;49.030;8.714;2023-06-01T08:37:20;4.30;;;2.53;;
7531;SDS011;3807;49.030;8.714;2023-06-01T08:39:45;6.87;;;2.63;;
7531;SDS011;3807;49.030;8.714;2023-06-01T08:44:46;6.67;;;3.30;;
7531;SDS011;3807;49.030;8.714;2023-06-01T08:47:12;7.80;;;3.00;;
7531;SDS011;3807;49.030;8.714;2023-06-01T08:49:38;4.23;;;2.97;;
7531;SDS011;3807;49.030;8.714;2023-06-01T08:52:08;4.50;;;3.27;;
7531;SDS011;3807;49.030;8.714;2023-06-01T08:54:37;8.07;;;2.57;;
7531;SDS011;3807;49.030;8.714;2023-06-01T08:57:04;10.33;;;3.00;;
7531;SDS011;3807;49.030;8.714;2023-06-01T08:59:32;7.67;;;3.00;;
7531;SDS011;3807;49.030;8.714;2023-06-01T09:01:59;4.53;;;2.83;;
7531;SDS011;3807;49.030;8.714;2023-06-01T09:04:25;3.80;;;2.67;;
7531;SDS011;3807;49.030;8.714;2023-06-01T09:06:51;10.77;;;3.03;;
7531;SDS011;3807;49.030;8.714;2023-06-01T09:09:17;6.20;;;2.83;;
7531;SDS011;3807;49.030;8.714;2023-06-01T09:11:43;5.53;;;3.17;;
7531;SDS011;3807;49.030;8.714;2023-06-01T09:14:22;6.87;;;2.80;;
7531;SDS011;3807;49.030;8.714;2023-06-01T09:16:48;6.13;;;3.33;;
7531;SDS011;3807;49.030;8.714;2023-06-01T09:19:15;8.77;;;3.10;;
7531;SDS011;3807;49.030;8.714;2023-06-01T09:21:54;6.77;;;2.83;;
7531;SDS011;3807;49.030;8.714;2023-06-01T09:24:21;7.23;;;3.10;;
7531;SDS011;3807;49.030;8.714;2023-06-01T09:26:50;8.63;;;3.30;;
7531;SDS011;3807;49.030;8.714;2023-06-01T09:29:17;6.13;;;3.40;;
7531;SDS011;3807;49.030;8.714;2023-06-01T09:31:43;4.70;;;2.87;;
7531;SDS011;3807;49.030;8.714;2023-06-01T09:34:10;5.37;;;2.70;;
7531;SDS011;3807;49.030;8.714;2023-06-01T09:36:47;12.43;;;3.30;;
7531;SDS011;3807;49.030;8.714;2023-06-01T09:39:14;3.70;;;2.80;;
7531;SDS011;3807;49.030;8.714;2023-06-01T09:41:45;6.40;;;3.20;;
7531;SDS011;3807;49.030;8.714;2023-06-01T09:46:56;5.00;;;3.10;;
7531;SDS011;3807;49.030;8.714;2023-06-01T09:51:53;4.77;;;3.03;;
7531;SDS011;3807;49.030;8.714;2023-06-01T09:54:44;5.50;;;3.03;;
7531;SDS011;3807;49.030;8.714;2023-06-01T09:57:13;4.40;;;3.10;;
7531;SDS011;3807;49.030;8.714;2023-06-01T09:59:45;5.17;;;3.23;;
7531;SDS011;3807;49.030;8.714;2023-06-01T10:02:12;4.30;;;3.03;;
7531;SDS011;3807;49.030;8.714;2023-06-01T10:04:40;9.67;;;3.50;;
7531;SDS011;3807;49.030;8.714;2023-06-01T10:07:08;9.10;;;3.00;;
7531;SDS011;3807;49.030;8.714;2023-06-01T10:09:36;5.70;;;3.53;;
7531;SDS011;3807;49.030;8.714;2023-06-01T10:12:04;5.77;;;3.00;;
7531;SDS011;3807;49.030;8.714;2023-06-01T10:14:30;4.65;;;3.10;;
7531;SDS011;3807;49.030;8.714;2023-06-01T10:16:56;7.45;;;3.50;;
7531;SDS011;3807;49.030;8.714;2023-06-01T10:19:22;6.30;;;3.92;;
7531;SDS011;3807;49.030;8.714;2023-06-01T10:21:48;6.83;;;3.47;;
7531;SDS011;3807;49.030;8.714;2023-06-01T10:24:16;7.53;;;3.40;;
7531;SDS011;3807;49.030;8.714;2023-06-01T10:29:12;7.90;;;3.70;;
7531;SDS011;3807;49.030;8.714;2023-06-01T10:31:39;5.82;;;3.30;;
7531;SDS011;3807;49.030;8.714;2023-06-01T10:34:06;5.70;;;3.03;;
7531;SDS011;3807;49.030;8.714;2023-06-01T10:39:29;5.70;;;3.45;;
7531;SDS011;3807;49.030;8.714;2023-06-01T10:41:59;8.80;;;3.65;;
7531;SDS011;3807;49.030;8.714;2023-06-01T10:54:54;6.78;;;3.05;;
7531;SDS011;3807;49.030;8.714;2023-06-01T10:57:40;6.62;;;3.55;;
7531;SDS011;3807;49.030;8.714;2023-06-01T11:02:53;4.78;;;2.95;;
7531;SDS011;3807;49.030;8.714;2023-06-01T11:13:17;3.50;;;2.35;;
7531;SDS011;3807;49.030;8.714;2023-06-01T11:21:11;6.18;;;3.00;;
7531;SDS011;3807;49.030;8.714;2023-06-01T11:23:44;3.67;;;2.72;;
7531;SDS011;3807;49.030;8.714;2023-06-01T11:26:11;4.43;;;3.00;;
7531;SDS011;3807;49.030;8.714;2023-06-01T11:28:40;5.28;;;2.60;;
7531;SDS011;3807;49.030;8.714;2023-06-01T11:31:10;4.25;;;2.40;;
7531;SDS011;3807;49.030;8.714;2023-06-01T11:33:38;4.55;;;2.50;;
7531;SDS011;3807;49.030;8.714;2023-06-01T11:36:05;6.65;;;2.08;;
7531;SDS011;3807;49.030;8.714;2023-06-01T11:38:35;5.28;;;2.22;;
7531;SDS011;3807;49.030;8.714;2023-06-01T11:41:04;5.35;;;2.15;;
7531;SDS011;3807;49.030;8.714;2023-06-01T11:43:29;6.37;;;2.70;;
7531;SDS011;3807;49.030;8.714;2023-06-01T11:46:02;4.18;;;2.80;;
7531;SDS011;3807;49.030;8.714;2023-06-01T11:48:29;4.53;;;2.50;;
7531;SDS011;3807;49.030;8.714;2023-06-01T11:50:55;4.12;;;2.20;;
7531;SDS011;3807;49.030;8.714;2023-06-01T11:53:21;8.07;;;2.75;;
7531;SDS011;3807;49.030;8.714;2023-06-01T11:55:50;6.20;;;2.53;;
7531;SDS011;3807;49.030;8.714;2023-06-01T11:58:21;6.55;;;2.58;;
7531;SDS011;3807;49.030;8.714;2023-06-01T12:00:47;4.00;;;2.40;;
7531;SDS011;3807;49.030;8.714;2023-06-01T12:03:13;5.37;;;2.42;;
7531;SDS011;3807;49.030;8.714;2023-06-01T12:05:39;6.37;;;2.75;;
7531;SDS011;3807;49.030;8.714;2023-06-01T12:08:14;4.82;;;2.42;;
7531;SDS011;3807;49.030;8.714;2023-06-01T12:10:46;5.10;;;2.67;;
7531;SDS011;3807;49.030;8.714;2023-06-01T12:13:12;5.50;;;2.50;;
7531;SDS011;3807;49.030;8.714;2023-06-01T12:15:39;2.83;;;2.30;;
7531;SDS011;3807;49.030;8.714;2023-06-01T12:18:04;4.35;;;2.53;;
7531;SDS011;3807;49.030;8.714;2023-06-01T12:20:37;4.40;;;2.55;;
7531;SDS011;3807;49.030;8.714;2023-06-01T12:23:12;3.60;;;2.40;;
7531;SDS011;3807;49.030;8.714;2023-06-01T12:25:54;4.10;;;2.70;;
7531;SDS011;3807;49.030;8.714;2023-06-01T12:28:22;3.17;;;2.50;;
7531;SDS011;3807;49.030;8.714;2023-06-01T12:30:48;5.43;;;2.20;;
7531;SDS011;3807;49.030;8.714;2023-06-01T12:33:33;6.05;;;2.45;;
7531;SDS011;3807;49.030;8.714;2023-06-01T12:36:00;3.17;;;2.45;;
7531;SDS011;3807;49.030;8.714;2023-06-01T12:41:17;4.47;;;2.37;;
7531;SDS011;3807;49.030;8.714;2023-06-01T12:43:46;5.57;;;2.50;;
7531;SDS011;3807;49.030;8.714;2023-06-01T12:46:23;7.30;;;3.03;;
7531;SDS011;3807;49.030;8.714;2023-06-01T12:48:53;7.72;;;2.58;;
7531;SDS011;3807;49.030;8.714;2023-06-01T12:51:22;5.03;;;2.28;;
7531;SDS011;3807;49.030;8.714;2023-06-01T12:53:48;4.75;;;2.20;;
7531;SDS011;3807;49.030;8.714;2023-06-01T12:56:13;4.03;;;2.37;;
7531;SDS011;3807;49.030;8.714;2023-06-01T12:58:39;6.00;;;2.45;;
7531;SDS011;3807;49.030;8.714;2023-06-01T13:01:05;5.57;;;2.50;;
7531;SDS011;3807;49.030;8.714;2023-06-01T13:03:31;5.55;;;2.80;;
7531;SDS011;3807;49.030;8.714;2023-06-01T13:05:57;3.75;;;2.15;;
7531;SDS011;3807;49.030;8.714;2023-06-01T13:08:23;4.97;;;2.20;;
7531;SDS011;3807;49.030;8.714;2023-06-01T13:10:48;2.92;;;2.30;;
7531;SDS011;3807;49.030;8.714;2023-06-01T13:13:15;2.40;;;1.80;;
7531;SDS011;3807;49.030;8.714;2023-06-01T13:15:41;7.18;;;2.50;;
7531;SDS011;3807;49.030;8.714;2023-06-01T13:18:10;4.07;;;2.33;;
7531;SDS011;3807;49.030;8.714;2023-06-01T13:20:36;3.60;;;2.12;;
7531;SDS011;3807;49.030;8.714;2023-06-01T13:23:02;4.97;;;2.33;;
7531;SDS011;3807;49.030;8.714;2023-06-01T13:25:28;3.80;;;2.10;;
7531;SDS011;3807;49.030;8.714;2023-06-01T13:27:54;2.92;;;1.87;;
7531;SDS011;3807;49.030;8.714;2023-06-01T13:30:19;5.40;;;2.47;;
7531;SDS011;3807;49.030;8.714;2023-06-01T13:32:45;8.02;;;2.30;;
7531;SDS011;3807;49.030;8.714;2023-06-01T13:35:10;2.33;;;1.87;;
7531;SDS011;3807;49.030;8.714;2023-06-01T13:37:36;5.85;;;2.42;;
7531;SDS011;3807;49.030;8.714;2023-06-01T13:40:02;7.30;;;2.55;;
7531;SDS011;3807;49.030;8.714;2023-06-01T13:42:30;7.87;;;2.10;;
7531;SDS011;3807;49.030;8.714;2023-06-01T13:44:55;3.53;;;2.25;;
7531;SDS011;3807;49.030;8.714;2023-06-01T13:47:21;3.70;;;1.98;;
7531;SDS011;3807;49.030;8.714;2023-06-01T13:49:47;6.47;;;2.30;;
7531;SDS011;3807;49.030;8.714;2023-06-01T13:52:12;4.53;;;2.40;;
7531;SDS011;3807;49.030;8.714;2023-06-01T13:54:38;3.37;;;2.12;;
7531;SDS011;3807;49.030;8.714;2023-06-01T13:57:03;2.22;;;1.98;;
7531;SDS011;3807;49.030;8.714;2023-06-01T13:59:30;4.05;;;2.28;;
7531;SDS011;3807;49.030;8.714;2023-06-01T14:01:56;5.28;;;1.90;;
7531;SDS011;3807;49.030;8.714;2023-06-01T14:04:22;3.53;;;2.22;;
7531;SDS011;3807;49.030;8.714;2023-06-01T14:06:47;4.62;;;2.00;;
7531;SDS011;3807;49.030;8.714;2023-06-01T14:09:15;6.40;;;2.10;;
7531;SDS011;3807;49.030;8.714;2023-06-01T14:11:43;3.87;;;2.10;;
7531;SDS011;3807;49.030;8.714;2023-06-01T14:14:09;4.07;;;2.50;;
7531;SDS011;3807;49.030;8.714;2023-06-01T14:16:34;4.03;;;2.42;;
7531;SDS011;3807;49.030;8.714;2023-06-01T14:18:59;4.32;;;2.30;;
7531;SDS011;3807;49.030;8.714;2023-06-01T14:21:25;3.62;;;1.92;;
7531;SDS011;3807;49.030;8.714;2023-06-01T14:23:51;4.70;;;2.40;;
7531;SDS011;3807;49.030;8.714;2023-06-01T14:26:16;3.20;;;2.05;;
7531;SDS011;3807;49.030;8.714;2023-06-01T14:28:42;6.28;;;2.37;;
7531;SDS011;3807;49.030;8.714;2023-06-01T14:31:07;4.40;;;2.47;;
7531;SDS011;3807;49.030;8.714;2023-06-01T14:33:33;5.20;;;2.37;;
7531;SDS011;3807;49.030;8.714;2023-06-01T14:35:58;6.15;;;2.15;;
7531;SDS011;3807;49.030;8.714;2023-06-01T14:38:24;4.22;;;2.35;;
7531;SDS011;3807;49.030;8.714;2023-06-01T14:40:49;3.72;;;2.22;;
7531;SDS011;3807;49.030;8.714;2023-06-01T14:43:15;4.18;;;2.17;;
7531;SDS011;3807;49.030;8.714;2023-06-01T14:45:40;4.78;;;1.90;;
7531;SDS011;3807;49.030;8.714;2023-06-01T14:48:05;6.10;;;2.12;;
7531;SDS011;3807;49.030;8.714;2023-06-01T14:50:31;4.40;;;2.33;;
7531;SDS011;3807;49.030;8.714;2023-06-01T14:52:56;3.42;;;1.98;;
7531;SDS011;3807;49.030;8.714;2023-06-01T14:55:24;2.67;;;1.90;;
7531;SDS011;3807;49.030;8.714;2023-06-01T14:57:50;2.95;;;1.98;;
7531;SDS011;3807;49.030;8.714;2023-06-01T15:00:16;3.67;;;2.03;;
7531;SDS011;3807;49.030;8.714;2023-06-01T15:02:42;3.78;;;2.30;;
7531;SDS011;3807;49.030;8.714;2023-06-01T15:05:07;4.03;;;1.80;;
7531;SDS011;3807;49.030;8.714;2023-06-01T15:07:33;5.43;;;2.28;;
7531;SDS011;3807;49.030;8.714;2023-06-01T15:09:58;5.57;;;2.40;;
7531;SDS011;3807;49.030;8.714;2023-06-01T15:12:23;3.30;;;2.08;;
7531;SDS011;3807;49.030;8.714;2023-06-01T15:14:49;5.05;;;2.28;;
7531;SDS011;3807;49.030;8.714;2023-06-01T15:17:16;4.22;;;2.10;;
7531;SDS011;3807;49.030;8.714;2023-06-01T15:19:42;3.47;;;2.60;;
7531;SDS011;3807;49.030;8.714;2023-06-01T15:22:07;6.82;;;2.25;;
7531;SDS011;3807;49.030;8.714;2023-06-01T15:24:32;3.00;;;2.17;;
7531;SDS011;3807;49.030;8.714;2023-06-01T15:26:58;2.67;;;1.95;;
7531;SDS011;3807;49.030;8.714;2023-06-01T15:29:23;4.10;;;2.30;;
7531;SDS011;3807;49.030;8.714;2023-06-01T15:31:49;3.92;;;2.40;;
7531;SDS011;3807;49.030;8.714;2023-06-01T15:34:14;4.78;;;2.12;;
7531;SDS011;3807;49.030;8.714;2023-06-01T15:36:39;5.15;;;2.45;;
7531;SDS011;3807;49.030;8.714;2023-06-01T15:39:05;4.43;;;2.60;;
7531;SDS011;3807;49.030;8.714;2023-06-01T15:41:30;3.22;;;2.25;;
7531;SDS011;3807;49.030;8.714;2023-06-01T15:43:56;6.00;;;2.33;;
7531;SDS011;3807;49.030;8.714;2023-06-01T15:46:21;4.05;;;2.40;;
7531;SDS011;3807;49.030;8.714;2023-06-01T15:48:47;2.42;;;2.10;;
7531;SDS011;3807;49.030;8.714;2023-06-01T15:51:12;4.78;;;2.33;;
7531;SDS011;3807;49.030;8.714;2023-06-01T15:53:37;3.05;;;2.20;;
7531;SDS011;3807;49.030;8.714;2023-06-01T15:56:03;3.28;;;2.33;;
7531;SDS011;3807;49.030;8.714;2023-06-01T15:58:28;5.18;;;2.53;;
7531;SDS011;3807;49.030;8.714;2023-06-01T16:00:54;4.70;;;2.17;;
7531;SDS011;3807;49.030;8.714;2023-06-01T16:03:19;3.53;;;2.37;;
7531;SDS011;3807;49.030;8.714;2023-06-01T16:05:44;5.05;;;2.10;;
7531;SDS011;3807;49.030;8.714;2023-06-01T16:08:10;3.60;;;2.53;;
7531;SDS011;3807;49.030;8.714;2023-06-01T16:10:36;3.40;;;2.37;;